createdAt,value
2023-05-19T00:01:52.559Z,8.29
2023-05-19T00:04:40.596Z,8.34
2023-05-19T00:07:32.545Z,8.49
2023-05-19T00:10:19.939Z,8.63
2023-05-19T00:13:07.024Z,8.55
2023-05-19T00:15:54.810Z,8.59
2023-05-19T00:18:43.430Z,8.38
2023-05-19T00:21:30.143Z,8.49
2023-05-19T00:24:16.642Z,8.54
2023-05-19T00:27:03.419Z,8.59
2023-05-19T00:29:50.079Z,8.52
2023-05-19T00:32:36.862Z,8.27
2023-05-19T00:35:25.371Z,8.04
2023-05-19T00:38:12.058Z,8.26
2023-05-19T00:40:58.750Z,8.47
2023-05-19T00:43:45.667Z,8.57
2023-05-19T00:46:32.367Z,8.66
2023-05-19T00:49:18.827Z,8.74
2023-05-19T00:52:07.965Z,8.74
2023-05-19T00:54:54.966Z,8.72
2023-05-19T00:57:41.329Z,8.69
2023-05-19T01:00:28.236Z,8.68
2023-05-19T01:03:15.224Z,8.63
2023-05-19T01:06:05.088Z,8.46
2023-05-19T01:08:53.445Z,8.50
2023-05-19T01:11:40.049Z,8.50
2023-05-19T01:14:26.735Z,8.41
2023-05-19T01:17:19.044Z,8.33
2023-05-19T01:20:13.642Z,8.42
2023-05-19T01:23:15.260Z,8.50
2023-05-19T01:26:19.385Z,8.56
2023-05-19T01:29:14.702Z,8.59
2023-05-19T01:32:06.029Z,8.60
2023-05-19T01:34:55.052Z,8.60
2023-05-19T01:37:42.504Z,8.61
2023-05-19T01:40:30.867Z,8.60
2023-05-19T01:43:19.538Z,8.59
2023-05-19T01:46:06.758Z,8.55
2023-05-19T01:48:54.652Z,8.54
2023-05-19T01:51:41.941Z,8.53
2023-05-19T01:54:28.366Z,8.54
2023-05-19T01:57:20.680Z,8.56
2023-05-19T02:00:12.719Z,8.55
2023-05-19T02:03:12.530Z,8.53
2023-05-19T02:06:07.684Z,8.52
2023-05-19T02:08:59.696Z,8.50
2023-05-19T02:11:53.903Z,8.49
2023-05-19T02:14:41.854Z,8.44
2023-05-19T02:17:33.719Z,8.44
2023-05-19T02:20:22.276Z,8.38
2023-05-19T02:23:10.452Z,8.36
2023-05-19T02:25:57.196Z,8.32
2023-05-19T02:28:44.064Z,8.32
2023-05-19T02:31:30.873Z,8.28
2023-05-19T02:34:17.470Z,8.27
2023-05-19T02:37:04.226Z,8.26
2023-05-19T02:39:52.828Z,8.25
2023-05-19T02:42:39.300Z,8.22
2023-05-19T02:45:28.522Z,8.22
2023-05-19T02:48:17.367Z,8.19
2023-05-19T02:51:04.285Z,8.17
2023-05-19T02:53:51.006Z,8.15
2023-05-19T02:56:39.079Z,8.14
2023-05-19T02:59:25.928Z,8.13
2023-05-19T03:02:12.515Z,8.11
2023-05-19T03:05:01.615Z,8.05
2023-05-19T03:07:48.319Z,7.99
2023-05-19T03:10:34.979Z,7.99
2023-05-19T03:13:22.905Z,8.00
2023-05-19T03:16:09.902Z,8.04
2023-05-19T03:18:56.765Z,8.06
2023-05-19T03:21:43.706Z,8.08
2023-05-19T03:24:30.656Z,8.00
2023-05-19T03:27:17.678Z,8.00
2023-05-19T03:30:06.772Z,8.04
2023-05-19T03:32:58.552Z,8.05
2023-05-19T03:35:45.434Z,8.08
2023-05-19T03:38:32.587Z,8.08
2023-05-19T03:41:19.943Z,8.02
2023-05-19T03:44:06.605Z,8.01
2023-05-19T03:46:54.717Z,7.96
2023-05-19T03:50:01.227Z,7.67
2023-05-19T03:53:20.695Z,7.55
2023-05-19T03:56:07.810Z,7.65
2023-05-19T03:58:54.828Z,7.62
2023-05-19T04:01:41.314Z,7.66
2023-05-19T04:04:30.795Z,7.63
2023-05-19T04:07:17.060Z,7.64
2023-05-19T04:10:05.424Z,7.69
2023-05-19T04:12:52.203Z,7.72
2023-05-19T04:15:38.955Z,7.79
2023-05-19T04:18:28.917Z,7.76
2023-05-19T04:21:17.032Z,7.62
2023-05-19T04:24:06.405Z,7.65
2023-05-19T04:26:53.675Z,7.68
2023-05-19T04:29:40.930Z,7.71
2023-05-19T04:32:29.306Z,7.77
2023-05-19T04:35:17.598Z,7.82
2023-05-19T04:38:05.899Z,7.82
2023-05-19T04:40:53.644Z,7.87
2023-05-19T04:43:41.859Z,7.84
2023-05-19T04:46:30.378Z,7.92
2023-05-19T04:49:19.294Z,7.99
2023-05-19T04:52:07.787Z,8.14
2023-05-19T04:54:56.006Z,8.23
2023-05-19T04:57:44.013Z,8.27
2023-05-19T05:00:31.217Z,8.29
2023-05-19T05:03:24.461Z,8.39
2023-05-19T05:06:13.974Z,8.45
2023-05-19T05:09:03.716Z,8.49
2023-05-19T05:11:52.463Z,8.56
2023-05-19T05:14:40.323Z,8.53
2023-05-19T05:17:28.311Z,8.55
2023-05-19T05:20:16.058Z,8.68
2023-05-19T05:23:03.096Z,8.74
2023-05-19T05:25:51.457Z,8.81
2023-05-19T05:28:39.616Z,8.82
2023-05-19T05:31:26.530Z,8.79
2023-05-19T05:34:13.169Z,8.82
2023-05-19T05:36:59.939Z,8.91
2023-05-19T05:39:46.641Z,8.99
2023-05-19T05:42:33.800Z,9.05
2023-05-19T05:45:22.486Z,9.17
2023-05-19T05:48:10.432Z,9.23
2023-05-19T05:50:58.069Z,9.33
2023-05-19T05:53:51.849Z,9.39
2023-05-19T05:56:39.373Z,9.43
2023-05-19T05:59:28.143Z,9.59
2023-05-19T06:02:16.520Z,9.73
2023-05-19T06:05:03.423Z,9.78
2023-05-19T06:07:49.976Z,9.84
2023-05-19T06:10:44.068Z,9.92
2023-05-19T06:13:32.482Z,10.00
2023-05-19T06:16:19.114Z,10.17
2023-05-19T06:19:08.864Z,10.28
2023-05-19T06:21:57.644Z,10.30
2023-05-19T06:24:44.651Z,10.48
2023-05-19T06:27:33.292Z,10.44
2023-05-19T06:30:22.910Z,10.51
2023-05-19T06:33:18.949Z,10.60
2023-05-19T06:36:08.516Z,10.73
2023-05-19T06:38:55.328Z,10.76
2023-05-19T06:41:42.564Z,10.94
2023-05-19T06:44:29.318Z,11.13
2023-05-19T06:47:16.288Z,11.18
2023-05-19T06:50:04.094Z,11.21
2023-05-19T06:52:57.244Z,11.17
2023-05-19T06:55:57.511Z,11.20
2023-05-19T06:58:46.715Z,11.15
2023-05-19T07:01:34.360Z,11.21
2023-05-19T07:04:21.190Z,11.34
2023-05-19T07:07:07.835Z,11.37
2023-05-19T07:09:55.935Z,11.71
2023-05-19T07:12:42.596Z,11.76
2023-05-19T07:15:29.172Z,11.94
2023-05-19T07:18:15.990Z,12.06
2023-05-19T07:21:02.615Z,12.04
2023-05-19T07:23:49.347Z,12.37
2023-05-19T07:26:37.519Z,12.50
2023-05-19T07:29:24.063Z,13.06
2023-05-19T07:32:10.885Z,13.82
2023-05-19T07:34:57.500Z,14.58
2023-05-19T07:37:45.005Z,14.60
2023-05-19T07:40:31.885Z,15.10
2023-05-19T07:43:20.358Z,14.83
2023-05-19T07:46:08.063Z,14.14
2023-05-19T07:48:55.392Z,14.83
2023-05-19T07:51:43.249Z,15.63
2023-05-19T07:54:31.245Z,15.47
2023-05-19T07:57:19.308Z,15.36
2023-05-19T08:00:12.663Z,15.14
2023-05-19T08:03:02.082Z,15.37
2023-05-19T08:05:49.103Z,15.84
2023-05-19T08:08:35.870Z,15.85
2023-05-19T08:11:22.841Z,16.07
2023-05-19T08:14:09.464Z,16.39
2023-05-19T08:16:57.490Z,16.52
2023-05-19T08:19:44.979Z,16.09
2023-05-19T08:22:31.683Z,16.55
2023-05-19T08:25:19.839Z,16.62
2023-05-19T08:28:06.216Z,16.55
2023-05-19T08:30:53.506Z,16.51
2023-05-19T08:33:41.366Z,16.72
2023-05-19T08:36:28.823Z,16.59
2023-05-19T08:39:17.624Z,16.81
2023-05-19T08:42:03.970Z,17.26
2023-05-19T08:44:50.767Z,16.56
2023-05-19T08:47:37.680Z,16.48
2023-05-19T08:50:28.987Z,16.99
2023-05-19T08:53:32.509Z,16.98
2023-05-19T08:56:23.206Z,17.49
2023-05-19T08:59:09.965Z,17.10
2023-05-19T09:01:56.677Z,17.12
2023-05-19T09:04:46.124Z,16.95
2023-05-19T09:07:35.104Z,17.79
2023-05-19T09:10:21.656Z,17.96
2023-05-19T09:13:08.435Z,17.67
2023-05-19T09:15:55.200Z,18.18
2023-05-19T09:18:42.619Z,18.25
2023-05-19T09:21:31.466Z,18.38
2023-05-19T09:24:19.691Z,18.42
2023-05-19T09:27:06.817Z,18.81
2023-05-19T09:29:53.477Z,18.66
2023-05-19T09:32:40.169Z,18.62
2023-05-19T09:35:26.941Z,18.79
2023-05-19T09:38:18.641Z,18.45
2023-05-19T09:41:07.695Z,19.16
2023-05-19T09:43:56.088Z,19.86
2023-05-19T09:46:49.612Z,19.49
2023-05-19T09:49:35.785Z,20.16
2023-05-19T09:52:22.244Z,20.42
2023-05-19T09:55:12.009Z,19.55
2023-05-19T09:58:00.206Z,19.38
2023-05-19T10:00:47.605Z,19.45
2023-05-19T10:03:35.148Z,18.55
2023-05-19T10:06:22.122Z,19.28
2023-05-19T10:09:08.812Z,20.14
2023-05-19T10:11:56.313Z,20.65
2023-05-19T10:14:43.945Z,20.75
2023-05-19T10:17:30.980Z,19.91
2023-05-19T10:20:18.426Z,19.81
2023-05-19T10:23:05.101Z,19.88
2023-05-19T10:25:53.043Z,20.56
2023-05-19T10:28:41.671Z,20.33
2023-05-19T10:31:30.671Z,19.65
2023-05-19T10:34:41.761Z,19.28
2023-05-19T10:37:35.559Z,20.08
2023-05-19T10:40:24.908Z,19.60
2023-05-19T10:43:26.047Z,19.85
2023-05-19T10:46:12.906Z,20.46
2023-05-19T10:49:04.049Z,20.45
2023-05-19T10:51:53.039Z,19.92
2023-05-19T10:54:43.365Z,19.26
2023-05-19T10:57:32.405Z,19.60
2023-05-19T11:00:28.850Z,19.83
2023-05-19T11:03:16.389Z,19.63
2023-05-19T11:06:35.844Z,19.13
2023-05-19T11:09:38.016Z,18.85
2023-05-19T11:12:28.042Z,18.88
2023-05-19T11:15:15.690Z,19.05
2023-05-19T11:18:03.746Z,19.58
2023-05-19T11:20:58.653Z,19.98
2023-05-19T11:23:45.432Z,19.83
2023-05-19T11:26:43.589Z,19.70
2023-05-19T11:29:30.026Z,19.33
2023-05-19T11:32:17.385Z,19.15
2023-05-19T11:35:04.314Z,19.45
2023-05-19T11:37:52.398Z,19.86
2023-05-19T11:40:39.636Z,20.03
2023-05-19T11:43:27.669Z,19.48
2023-05-19T11:46:14.802Z,19.36
2023-05-19T11:49:02.333Z,19.36
2023-05-19T11:51:48.906Z,19.73
2023-05-19T11:54:36.766Z,19.67
2023-05-19T11:57:23.752Z,19.63
2023-05-19T12:00:14.737Z,19.30
2023-05-19T12:03:01.813Z,19.35
2023-05-19T12:05:49.823Z,19.45
2023-05-19T12:08:37.860Z,19.44
2023-05-19T12:11:25.018Z,19.12
2023-05-19T12:14:11.738Z,19.28
2023-05-19T12:16:59.689Z,19.11
2023-05-19T12:19:47.589Z,18.90
2023-05-19T12:22:34.277Z,18.46
2023-05-19T12:25:21.337Z,18.01
2023-05-19T12:28:08.257Z,17.79
2023-05-19T12:30:54.786Z,17.69
2023-05-19T12:33:43.114Z,17.77
2023-05-19T12:36:30.894Z,17.95
2023-05-19T12:39:18.463Z,18.00
2023-05-19T12:42:09.125Z,18.37
2023-05-19T12:45:02.975Z,18.73
2023-05-19T12:47:50.326Z,18.99
2023-05-19T12:50:38.344Z,19.21
2023-05-19T12:53:27.698Z,18.93
2023-05-19T12:56:14.900Z,19.57
2023-05-19T12:59:02.099Z,19.23
2023-05-19T13:01:56.706Z,19.31
2023-05-19T13:04:43.316Z,19.13
2023-05-19T13:07:31.793Z,19.43
2023-05-19T13:10:19.013Z,19.85
2023-05-19T13:13:06.615Z,20.24
2023-05-19T13:15:53.757Z,20.04
2023-05-19T13:18:40.785Z,19.40
2023-05-19T13:21:27.263Z,19.08
2023-05-19T13:24:15.666Z,18.96
2023-05-19T13:27:03.281Z,18.90
2023-05-19T13:29:49.721Z,19.16
2023-05-19T13:32:36.465Z,18.89
2023-05-19T13:35:23.496Z,18.80
2023-05-19T13:38:10.995Z,18.89
2023-05-19T13:40:58.732Z,18.83
2023-05-19T13:43:45.245Z,18.46
2023-05-19T13:46:44.835Z,18.79
2023-05-19T13:49:32.610Z,19.10
2023-05-19T13:52:19.661Z,19.24
2023-05-19T13:55:08.260Z,19.15
2023-05-19T13:57:56.310Z,18.95
2023-05-19T14:00:43.083Z,18.75
2023-05-19T14:03:30.019Z,18.71
2023-05-19T14:06:17.152Z,18.10
2023-05-19T14:09:04.623Z,17.78
2023-05-19T14:11:50.995Z,18.39
2023-05-19T14:14:39.471Z,18.37
2023-05-19T14:17:28.120Z,18.59
2023-05-19T14:20:14.818Z,18.84
2023-05-19T14:23:01.884Z,19.07
2023-05-19T14:25:48.817Z,18.87
2023-05-19T14:28:35.678Z,18.46
2023-05-19T14:31:24.074Z,18.41
2023-05-19T14:34:10.801Z,18.68
2023-05-19T14:36:58.084Z,18.74
2023-05-19T14:39:44.747Z,19.11
2023-05-19T14:42:31.396Z,18.99
2023-05-19T14:45:18.301Z,18.64
2023-05-19T14:48:06.605Z,18.40
2023-05-19T14:50:54.057Z,18.06
2023-05-19T14:53:40.656Z,18.19
2023-05-19T14:56:27.339Z,18.55
2023-05-19T14:59:14.504Z,18.62
2023-05-19T15:02:01.391Z,18.61
2023-05-19T15:04:49.510Z,18.59
2023-05-19T15:07:36.149Z,18.50
2023-05-19T15:10:23.358Z,18.20
2023-05-19T15:13:09.794Z,18.15
2023-05-19T15:16:08.418Z,17.92
2023-05-19T15:19:02.858Z,18.06
2023-05-19T15:21:51.230Z,18.11
2023-05-19T15:24:37.929Z,17.99
2023-05-19T15:27:24.660Z,18.19
2023-05-19T15:30:12.171Z,18.09
2023-05-19T15:32:59.046Z,18.01
2023-05-19T15:35:47.673Z,17.82
2023-05-19T15:38:37.351Z,17.82
2023-05-19T15:41:23.875Z,17.74
2023-05-19T15:44:10.692Z,17.72
2023-05-19T15:46:57.511Z,17.77
2023-05-19T15:49:44.739Z,17.73
2023-05-19T15:52:31.308Z,17.65
2023-05-19T15:55:19.482Z,17.49
2023-05-19T15:58:06.144Z,17.55
2023-05-19T16:00:53.136Z,17.55
2023-05-19T16:03:39.710Z,17.53
2023-05-19T16:06:27.677Z,17.36
2023-05-19T16:09:14.536Z,17.39
2023-05-19T16:12:03.114Z,17.28
2023-05-19T16:14:50.099Z,17.35
2023-05-19T16:17:37.126Z,17.31
2023-05-19T16:20:26.871Z,17.32
2023-05-19T16:23:13.616Z,17.19
2023-05-19T16:26:00.313Z,17.25
2023-05-19T16:28:48.472Z,17.24
2023-05-19T16:31:35.379Z,17.20
2023-05-19T16:34:22.026Z,17.00
2023-05-19T16:38:26.203Z,16.97
2023-05-19T16:46:05.515Z,16.84
2023-05-19T16:48:52.529Z,16.72
2023-05-19T16:51:39.285Z,16.66
2023-05-19T16:54:26.094Z,16.66
2023-05-19T16:57:14.875Z,16.63
2023-05-19T17:00:02.154Z,16.54
2023-05-19T17:02:50.251Z,16.54
2023-05-19T17:05:39.066Z,16.43
2023-05-19T17:08:25.644Z,16.29
2023-05-19T17:11:13.522Z,16.17
2023-05-19T17:14:02.004Z,16.24
2023-05-19T17:16:48.960Z,16.17
2023-05-19T17:19:36.727Z,16.11
2023-05-19T17:22:23.473Z,16.08
2023-05-19T17:25:13.684Z,16.01
2023-05-19T17:28:00.169Z,15.94
2023-05-19T17:30:46.911Z,15.99
2023-05-19T17:33:33.932Z,16.04
2023-05-19T17:36:22.040Z,15.97
2023-05-19T17:39:09.831Z,15.84
2023-05-19T17:41:56.664Z,15.87
2023-05-19T17:44:43.412Z,15.75
2023-05-19T17:47:30.227Z,15.80
2023-05-19T17:50:17.090Z,15.78
2023-05-19T17:53:05.652Z,15.69
2023-05-19T17:55:53.539Z,15.56
2023-05-19T17:58:41.383Z,15.63
2023-05-19T18:01:28.336Z,15.37
2023-05-19T18:04:16.151Z,15.39
2023-05-19T18:07:04.164Z,15.40
2023-05-19T18:09:52.902Z,15.20
2023-05-19T18:12:39.722Z,15.15
2023-05-19T18:15:26.387Z,15.07
2023-05-19T18:18:12.999Z,15.01
2023-05-19T18:20:59.783Z,14.92
2023-05-19T18:23:46.792Z,14.93
2023-05-19T18:26:34.611Z,14.89
2023-05-19T18:29:21.455Z,14.83
2023-05-19T18:32:11.295Z,14.71
2023-05-19T18:34:58.198Z,14.71
2023-05-19T18:37:44.655Z,14.60
2023-05-19T18:40:31.687Z,14.49
2023-05-19T18:43:20.326Z,14.47
2023-05-19T18:46:06.979Z,14.49
2023-05-19T18:48:54.016Z,14.36
2023-05-19T18:51:40.429Z,14.37
2023-05-19T18:54:24.822Z,14.35
2023-05-19T18:57:11.731Z,14.23
2023-05-19T18:59:59.572Z,14.23
2023-05-19T19:02:46.014Z,14.27
2023-05-19T19:05:32.664Z,14.19
2023-05-19T19:08:19.637Z,14.11
2023-05-19T19:11:09.363Z,14.11
2023-05-19T19:13:56.701Z,14.08
2023-05-19T19:16:44.865Z,14.02
2023-05-19T19:19:31.828Z,14.00
2023-05-19T19:22:18.361Z,14.00
2023-05-19T19:25:05.633Z,13.91
2023-05-19T19:27:53.013Z,13.85
2023-05-19T19:30:39.363Z,13.81
2023-05-19T19:33:27.615Z,13.87
2023-05-19T19:36:14.375Z,13.81
2023-05-19T19:39:01.048Z,13.85
2023-05-19T19:41:47.910Z,13.76
2023-05-19T19:44:34.882Z,13.65
2023-05-19T19:47:21.209Z,13.65
2023-05-19T19:50:10.709Z,13.56
2023-05-19T19:52:57.384Z,13.57
2023-05-19T19:55:44.407Z,13.59
2023-05-19T19:58:31.617Z,13.60
2023-05-19T20:01:20.426Z,13.42
2023-05-19T20:04:07.012Z,13.30
2023-05-19T20:06:54.894Z,13.39
2023-05-19T20:09:41.529Z,13.42
2023-05-19T20:12:30.062Z,13.30
2023-05-19T20:15:16.948Z,13.24
2023-05-19T20:18:03.395Z,13.25
2023-05-19T20:20:50.210Z,13.09
2023-05-19T20:23:40.706Z,13.02
2023-05-19T20:26:27.152Z,13.05
2023-05-19T20:29:14.109Z,12.97
2023-05-19T20:32:01.019Z,12.96
2023-05-19T20:34:47.807Z,12.94
2023-05-19T20:37:34.346Z,12.85
2023-05-19T20:40:22.528Z,12.85
2023-05-19T20:43:09.446Z,12.87
2023-05-19T20:45:56.179Z,12.81
2023-05-19T20:48:42.862Z,12.84
2023-05-19T20:51:29.660Z,12.64
2023-05-19T20:54:16.852Z,12.60
2023-05-19T20:57:09.061Z,12.72
2023-05-19T20:59:55.403Z,12.78
2023-05-19T21:02:42.216Z,12.84
2023-05-19T21:05:29.166Z,12.82
2023-05-19T21:08:15.768Z,12.80
2023-05-19T21:11:02.722Z,12.78
2023-05-19T21:13:51.324Z,12.78
2023-05-19T21:16:38.843Z,12.67
2023-05-19T21:19:25.904Z,12.58
2023-05-19T21:22:12.482Z,12.52
2023-05-19T21:24:59.168Z,12.51
2023-05-19T21:27:46.696Z,12.41
2023-05-19T21:30:35.132Z,12.37
2023-05-19T21:33:21.603Z,12.32
2023-05-19T21:36:08.944Z,12.32
2023-05-19T21:38:55.779Z,12.29
2023-05-19T21:41:42.530Z,12.30
2023-05-19T21:44:29.316Z,12.29
2023-05-19T21:47:17.719Z,12.28
2023-05-19T21:50:04.759Z,12.17
2023-05-19T21:52:51.455Z,12.13
2023-05-19T21:55:39.271Z,12.04
2023-05-19T21:58:26.579Z,12.01
2023-05-19T22:01:13.352Z,12.04
2023-05-19T22:04:01.678Z,12.08
2023-05-19T22:06:48.661Z,12.05
2023-05-19T22:09:35.424Z,12.03
2023-05-19T22:12:23.178Z,11.99
2023-05-19T22:15:11.119Z,11.96
2023-05-19T22:17:57.881Z,11.90
2023-05-19T22:20:46.027Z,11.86
2023-05-19T22:23:32.619Z,11.81
2023-05-19T22:26:19.155Z,11.78
2023-05-19T22:29:05.923Z,11.77
2023-05-19T22:31:52.853Z,11.73
2023-05-19T22:34:39.867Z,11.65
2023-05-19T22:37:29.003Z,11.63
2023-05-19T22:40:15.720Z,11.55
2023-05-19T22:43:02.230Z,11.47
2023-05-19T22:45:49.394Z,11.33
2023-05-19T22:48:36.014Z,11.25
2023-05-19T22:51:22.684Z,11.16
2023-05-19T22:54:10.819Z,11.11
2023-05-19T22:56:57.667Z,11.03
2023-05-19T22:59:44.554Z,11.00
2023-05-19T23:02:31.506Z,11.01
2023-05-19T23:05:18.164Z,10.99
2023-05-19T23:08:04.932Z,11.04
2023-05-19T23:10:53.955Z,11.02
2023-05-19T23:13:40.667Z,10.91
2023-05-19T23:16:27.274Z,10.81
2023-05-19T23:19:14.055Z,10.77
2023-05-19T23:22:00.887Z,10.79
2023-05-19T23:24:47.507Z,10.84
2023-05-19T23:27:36.250Z,10.78
2023-05-19T23:30:23.055Z,10.75
2023-05-19T23:33:09.758Z,10.66
2023-05-19T23:35:56.401Z,10.68
2023-05-19T23:38:43.392Z,10.60
2023-05-19T23:41:30.197Z,10.52
2023-05-19T23:44:19.471Z,10.56
2023-05-19T23:47:06.954Z,10.48
2023-05-19T23:49:53.494Z,10.43
2023-05-19T23:52:40.230Z,10.40
2023-05-19T23:55:27.012Z,10.46
2023-05-19T23:58:13.724Z,10.45
